aviador You're here:

OEDF Decoded Metar

DAMMAM in SAUDI ARABIA
Report Time2017-11-25 09:00:00
UTC Time2017-11-25 09:25:24
Flight Rules vfr VFR
Wind330° at 12 kt
W.Decomp.*RWY 34: 11.7 kt HW 2.5 kt LCW
W.Rank330° ranks 8
Current wind is above 330° avg. (11.3)
Visibility9999 m
Phenomena:N/A
Clouds:Few 040 Hf
Expected CloudBase > 6,000 ft AGL from Temp-Dew spread
CeilingNone
Temp24°C (ISA +9)
Dew Point09°C (39% RH)
AAT19.5°C
QNH1022 hPa
Density Alt988 ft
Elevation72 ft
Report Wrong Elevation
Raw Report
METAR OEDF 250900Z 33012KT 9999 FEW040 24/09 Q1022 NOSIG=

Extra information for OEDF:More info

Metar Taf Metar & Taf Last 4 Metars F.Rules Stats Wind Profile Meteogram Temp Stats Airport Information Weather charts Add Link Nearby VenuesMetar ALERT Operation Metar Decoded Social comments